Time;durP1;ratioP1;P1;durP2;ratioP2;P2;SDS_P1;SDS_P2;PMS_P1;PMS_P2;Temp;Humidity;BMP_temperature;BMP_pressure;BME280_temperature;BME280_humidity;BME280_pressure;Samples;Min_cycle;Max_cycle;Signal;HPM_P1;HPM_P2
2023/04/18 00:02:03;;;;;;;;;;;;;;;7.80;100.00;96792.69;108590;1275;22580;-88
2023/04/18 00:04:32;;;;;;;;;;;;;;;7.79;100.00;96794.27;108466;1282;106215;-87
2023/04/18 00:07:01;;;;;;;;;;;;;;;7.78;100.00;96791.64;108585;1282;22552;-86
2023/04/18 00:09:29;;;;;;;;;;;;;;;7.76;100.00;96798.23;108509;1268;22515;-87
2023/04/18 00:11:58;;;;;;;;;;;;;;;7.74;100.00;96797.79;108562;1281;23789;-86
2023/04/18 00:14:27;;;;;;;;;;;;;;;7.71;100.00;96798.39;108487;1281;114797;-87
2023/04/18 00:16:56;;;;;;;;;;;;;;;7.69;100.00;96795.79;108650;1282;22551;-86
2023/04/18 00:19:23;;;;;;;;;;;;;;;7.67;100.00;96799.48;108606;1274;22535;-88
2023/04/18 00:21:52;;;;;;;;;;;;;;;7.65;100.00;96799.95;108569;1281;25244;-87
2023/04/18 00:24:19;;;;;;;;;;;;;;;7.62;100.00;96808.54;108508;1282;82641;-86
2023/04/18 00:26:48;;;;;;;;;;;;;;;7.61;100.00;96808.16;108584;1281;22527;-87
2023/04/18 00:29:16;;;;;;;;;;;;;;;7.59;100.00;96807.23;108587;1282;23285;-88
2023/04/18 00:31:46;;;;;;;;;;;;;;;7.58;100.00;96812.29;108575;1278;22517;-87
2023/04/18 00:34:14;;;;;;;;;;;;;;;7.57;100.00;96813.91;108503;1281;73475;-86
2023/04/18 00:36:41;;;;;;;;;;;;;;;7.55;100.00;96815.48;108556;1282;23360;-87
2023/04/18 00:39:09;;;;;;;;;;;;;;;7.53;100.00;96812.10;108589;1282;22526;-87
2023/04/18 00:41:37;;;;;;;;;;;;;;;7.50;100.00;96819.38;108575;1282;22648;-87
2023/04/18 00:44:04;;;;;;;;;;;;;;;7.49;100.00;96821.63;108473;1282;101854;-86
2023/04/18 00:46:31;;;;;;;;;;;;;;;7.46;100.00;96823.98;108570;1282;25468;-86
2023/04/18 00:48:59;;;;;;;;;;;;;;;7.43;100.00;96817.35;108529;1282;22734;-86
2023/04/18 00:51:26;;;;;;;;;;;;;;;7.40;100.00;96822.20;108570;1282;24260;-87
2023/04/18 00:53:54;;;;;;;;;;;;;;;7.39;100.00;96826.52;108542;1278;109284;-86
2023/04/18 00:56:22;;;;;;;;;;;;;;;7.39;100.00;96827.30;108546;1282;23069;-86
2023/04/18 00:58:50;;;;;;;;;;;;;;;7.37;100.00;96826.77;108540;1282;23372;-86
2023/04/18 01:01:17;;;;;;;;;;;;;;;7.37;100.00;96825.23;108590;1282;24281;-86
2023/04/18 01:03:45;;;;;;;;;;;;;;;7.37;100.00;96828.92;108560;1282;55350;-86
2023/04/18 01:06:12;;;;;;;;;;;;;;;7.37;100.00;96824.02;108603;1275;22573;-86
2023/04/18 01:08:40;;;;;;;;;;;;;;;7.37;100.00;96828.50;108587;1282;22554;-86
2023/04/18 01:11:07;;;;;;;;;;;;;;;7.35;100.00;96823.27;108551;1276;22524;-86
2023/04/18 01:13:34;;;;;;;;;;;;;;;7.35;100.00;96826.27;108511;1281;50326;-86
2023/04/18 01:16:02;;;;;;;;;;;;;;;7.35;100.00;96828.27;108549;1279;22562;-86
2023/04/18 01:18:30;;;;;;;;;;;;;;;7.34;100.00;96827.17;108577;1282;22554;-85
2023/04/18 01:20:59;;;;;;;;;;;;;;;7.34;100.00;96829.01;108811;1281;22526;-86
2023/04/18 01:23:26;;;;;;;;;;;;;;;7.33;100.00;96832.27;108532;1281;118759;-87
2023/04/18 01:25:54;;;;;;;;;;;;;;;7.34;100.00;96835.18;108551;1282;23404;-85
2023/04/18 01:28:21;;;;;;;;;;;;;;;7.33;100.00;96836.08;108541;1282;22556;-85
2023/04/18 01:30:49;;;;;;;;;;;;;;;7.34;100.00;96833.29;108584;1281;23996;-86
2023/04/18 01:33:16;;;;;;;;;;;;;;;7.33;100.00;96835.69;108561;1282;22544;-86
2023/04/18 01:35:43;;;;;;;;;;;;;;;7.32;100.00;96834.10;108514;1282;56582;-87
2023/04/18 01:38:10;;;;;;;;;;;;;;;7.30;100.00;96835.29;108574;1282;22626;-86
2023/04/18 01:40:38;;;;;;;;;;;;;;;7.28;100.00;96835.17;108570;1275;22554;-86
2023/04/18 01:43:05;;;;;;;;;;;;;;;7.28;100.00;96832.95;108550;1282;24178;-86
2023/04/18 01:45:32;;;;;;;;;;;;;;;7.27;100.00;96836.79;108513;1274;47509;-86
2023/04/18 01:48:00;;;;;;;;;;;;;;;7.25;100.00;96843.27;108586;1282;22533;-86
2023/04/18 01:50:27;;;;;;;;;;;;;;;7.24;100.00;96842.79;108597;1275;22515;-86
2023/04/18 01:52:54;;;;;;;;;;;;;;;7.23;100.00;96844.36;108606;1274;22543;-86
2023/04/18 01:55:21;;;;;;;;;;;;;;;7.21;100.00;96843.23;108559;1278;47117;-86
2023/04/18 01:57:50;;;;;;;;;;;;;;;7.20;100.00;96849.20;108548;1278;22539;-86
2023/04/18 02:00:18;;;;;;;;;;;;;;;7.19;100.00;96852.98;108587;1282;22551;-85
2023/04/18 02:02:45;;;;;;;;;;;;;;;7.17;100.00;96855.00;108560;1275;22514;-86
2023/04/18 02:05:13;;;;;;;;;;;;;;;7.15;100.00;96857.63;108591;1281;42475;-86
2023/04/18 02:07:41;;;;;;;;;;;;;;;7.15;100.00;96856.10;108606;1281;22515;-85
2023/04/18 02:10:09;;;;;;;;;;;;;;;7.16;100.00;96859.32;108569;1282;22551;-86
2023/04/18 02:12:36;;;;;;;;;;;;;;;7.15;100.00;96858.16;108572;1279;25424;-86
2023/04/18 02:15:05;;;;;;;;;;;;;;;7.14;100.00;96855.56;108495;1282;56459;-87
2023/04/18 02:17:34;;;;;;;;;;;;;;;7.12;100.00;96855.45;108582;1282;25409;-86
2023/04/18 02:20:01;;;;;;;;;;;;;;;7.12;100.00;96859.19;108529;1282;24323;-85
2023/04/18 02:22:29;;;;;;;;;;;;;;;7.12;100.00;96856.81;108594;1275;22522;-85
2023/04/18 02:24:56;;;;;;;;;;;;;;;7.10;100.00;96859.75;108544;1281;52729;-86
2023/04/18 02:27:23;;;;;;;;;;;;;;;7.08;100.00;96855.78;108619;1281;22633;-86
2023/04/18 02:29:51;;;;;;;;;;;;;;;7.08;100.00;96860.11;108565;1271;23074;-86
2023/04/18 02:32:18;;;;;;;;;;;;;;;7.06;100.00;96856.98;108589;1282;23664;-86
2023/04/18 02:34:45;;;;;;;;;;;;;;;7.06;100.00;96863.46;108528;1278;59670;-86
2023/04/18 02:37:12;;;;;;;;;;;;;;;7.04;100.00;96861.02;108604;1282;22858;-85
2023/04/18 02:39:40;;;;;;;;;;;;;;;7.04;100.00;96861.60;108579;1281;23903;-85
2023/04/18 02:42:07;;;;;;;;;;;;;;;7.02;100.00;96861.04;108544;1281;24314;-85
2023/04/18 02:44:34;;;;;;;;;;;;;;;7.00;100.00;96859.85;108519;1281;55693;-86
2023/04/18 02:47:02;;;;;;;;;;;;;;;6.98;100.00;96866.59;108565;1274;22538;-86
2023/04/18 02:49:29;;;;;;;;;;;;;;;6.98;100.00;96867.21;108572;1282;22498;-86
2023/04/18 02:51:56;;;;;;;;;;;;;;;6.98;100.00;96867.70;108593;1282;24352;-86
2023/04/18 02:54:24;;;;;;;;;;;;;;;6.97;100.00;96871.27;108517;1281;84771;-86
2023/04/18 02:56:52;;;;;;;;;;;;;;;6.96;100.00;96874.70;108565;1282;22591;-86
2023/04/18 02:59:20;;;;;;;;;;;;;;;6.96;100.00;96875.64;108568;1282;22504;-85
2023/04/18 03:01:47;;;;;;;;;;;;;;;6.96;100.00;96874.38;108565;1282;25252;-85
2023/04/18 03:04:14;;;;;;;;;;;;;;;6.96;100.00;96874.33;108530;1282;61124;-86
2023/04/18 03:06:41;;;;;;;;;;;;;;;6.95;100.00;96874.58;108549;1282;25068;-85
2023/04/18 03:09:09;;;;;;;;;;;;;;;6.95;100.00;96878.05;108536;1282;22644;-86
2023/04/18 03:11:36;;;;;;;;;;;;;;;6.93;100.00;96879.04;108603;1282;22504;-85
2023/04/18 03:14:03;;;;;;;;;;;;;;;6.93;100.00;96877.62;108498;1282;69874;-85
2023/04/18 03:16:31;;;;;;;;;;;;;;;6.94;100.00;96878.36;108585;1280;24276;-85
2023/04/18 03:18:58;;;;;;;;;;;;;;;6.95;100.00;96877.38;108562;1282;22545;-85
2023/04/18 03:21:26;;;;;;;;;;;;;;;6.95;100.00;96879.11;108582;1281;22544;-85
2023/04/18 03:23:53;;;;;;;;;;;;;;;6.95;100.00;96879.85;108509;1282;70054;-85
2023/04/18 03:26:20;;;;;;;;;;;;;;;6.96;100.00;96880.91;108556;1281;24894;-86
2023/04/18 03:28:48;;;;;;;;;;;;;;;6.97;100.00;96881.97;108558;1279;22512;-85
2023/04/18 03:31:15;;;;;;;;;;;;;;;6.96;100.00;96884.39;108570;1276;22575;-85
2023/04/18 03:33:44;;;;;;;;;;;;;;;6.97;100.00;96888.51;108533;1282;55007;-85
2023/04/18 03:36:13;;;;;;;;;;;;;;;6.97;100.00;96888.41;108566;1281;22517;-85
2023/04/18 03:38:41;;;;;;;;;;;;;;;6.97;100.00;96889.62;108576;1281;24183;-85
2023/04/18 03:41:08;;;;;;;;;;;;;;;6.97;100.00;96892.10;108573;1275;22705;-85
2023/04/18 03:43:36;;;;;;;;;;;;;;;6.98;100.00;96895.16;108542;1276;34269;-86
2023/04/18 03:46:03;;;;;;;;;;;;;;;6.97;100.00;96896.80;108553;1282;22626;-85
2023/04/18 03:48:34;;;;;;;;;;;;;;;6.96;100.00;96898.37;108591;1282;22495;-86
2023/04/18 03:51:02;;;;;;;;;;;;;;;6.96;100.00;96899.10;108609;1281;22621;-85
2023/04/18 03:53:29;;;;;;;;;;;;;;;6.97;100.00;96894.78;108573;1279;48318;-85
2023/04/18 03:55:56;;;;;;;;;;;;;;;6.98;100.00;96896.05;108563;1282;22556;-85
2023/04/18 03:58:24;;;;;;;;;;;;;;;6.98;100.00;96895.38;108586;1282;22560;-85
2023/04/18 04:00:53;;;;;;;;;;;;;;;7.00;100.00;96896.39;108558;1282;25441;-85
2023/04/18 04:03:21;;;;;;;;;;;;;;;7.01;100.00;96898.83;108590;1280;25456;-86
2023/04/18 04:05:48;;;;;;;;;;;;;;;7.02;100.00;96904.63;108554;1265;22828;-85
2023/04/18 04:08:16;;;;;;;;;;;;;;;7.03;100.00;96904.80;108531;1282;23670;-86
2023/04/18 04:10:43;;;;;;;;;;;;;;;7.05;100.00;96911.06;108568;1282;22513;-86
2023/04/18 04:13:10;;;;;;;;;;;;;;;7.06;100.00;96915.19;108558;1282;24222;-85
2023/04/18 04:15:41;;;;;;;;;;;;;;;7.07;100.00;96919.25;108525;1279;40766;-85
2023/04/18 04:18:08;;;;;;;;;;;;;;;7.09;100.00;96921.75;108570;1281;22511;-85
2023/04/18 04:20:35;;;;;;;;;;;;;;;7.11;100.00;96922.88;108548;1282;22511;-84
2023/04/18 04:23:03;;;;;;;;;;;;;;;7.12;100.00;96925.58;108574;1282;22529;-85
2023/04/18 04:25:32;;;;;;;;;;;;;;;7.15;100.00;96927.48;108498;1282;53963;-85
2023/04/18 04:28:01;;;;;;;;;;;;;;;7.17;100.00;96925.77;108569;1282;25252;-85
2023/04/18 04:30:30;;;;;;;;;;;;;;;7.19;100.00;96931.44;108412;1282;142784;-85
2023/04/18 04:32:58;;;;;;;;;;;;;;;7.22;100.00;96935.79;108555;1282;22524;-85
2023/04/18 04:35:26;;;;;;;;;;;;;;;7.24;100.00;96940.35;108508;1277;77465;-85
2023/04/18 04:37:53;;;;;;;;;;;;;;;7.26;100.00;96942.11;108597;1281;22507;-85
2023/04/18 04:40:21;;;;;;;;;;;;;;;7.28;100.00;96941.55;108539;1282;22491;-85
2023/04/18 04:42:52;;;;;;;;;;;;;;;7.30;100.00;96941.14;108544;1282;25265;-85
2023/04/18 04:45:20;;;;;;;;;;;;;;;7.32;100.00;96943.55;108512;1282;51331;-85
2023/04/18 04:47:47;;;;;;;;;;;;;;;7.33;100.00;96935.98;108539;1282;22549;-85
2023/04/18 04:50:15;;;;;;;;;;;;;;;7.36;100.00;96936.15;108550;1279;22616;-85
2023/04/18 04:52:42;;;;;;;;;;;;;;;7.39;100.00;96937.02;108578;1281;24918;-85
2023/04/18 04:55:10;;;;;;;;;;;;;;;7.41;100.00;96944.16;108531;1282;38961;-85
2023/04/18 04:57:37;;;;;;;;;;;;;;;7.43;100.00;96954.67;108581;1282;22506;-85
2023/04/18 05:00:07;;;;;;;;;;;;;;;7.46;100.00;96956.98;108535;1279;22504;-85
2023/04/18 05:02:34;;;;;;;;;;;;;;;7.51;100.00;96958.92;108674;1282;22509;-85
2023/04/18 05:05:02;;;;;;;;;;;;;;;7.57;100.00;96962.35;108449;1278;89298;-85
2023/04/18 05:07:29;;;;;;;;;;;;;;;7.60;100.00;96962.74;108565;1282;22504;-85
2023/04/18 05:09:56;;;;;;;;;;;;;;;7.63;100.00;96965.54;108580;1282;24924;-85
2023/04/18 05:12:24;;;;;;;;;;;;;;;7.67;100.00;96961.50;108542;1282;22663;-85
2023/04/18 05:14:51;;;;;;;;;;;;;;;7.71;100.00;96962.80;108539;1281;53620;-85
2023/04/18 05:17:19;;;;;;;;;;;;;;;7.77;100.00;96964.49;108562;1282;22505;-85
2023/04/18 05:19:46;;;;;;;;;;;;;;;7.82;100.00;96959.73;108559;1279;22500;-86
2023/04/18 05:22:13;;;;;;;;;;;;;;;7.84;100.00;96970.55;108601;1278;22504;-86
2023/04/18 05:24:41;;;;;;;;;;;;;;;7.85;100.00;96978.95;108489;1274;43724;-85
2023/04/18 05:27:08;;;;;;;;;;;;;;;7.85;100.00;96979.75;108487;1282;24008;-85
2023/04/18 05:29:36;;;;;;;;;;;;;;;7.84;100.00;96978.52;108526;1278;22565;-85
2023/04/18 05:32:03;;;;;;;;;;;;;;;7.84;100.00;96976.52;108557;1282;22857;-86
2023/04/18 05:34:31;;;;;;;;;;;;;;;7.85;100.00;96978.96;108459;1282;50542;-86
2023/04/18 05:36:58;;;;;;;;;;;;;;;7.87;100.00;96981.34;108553;1282;22509;-85
2023/04/18 05:39:26;;;;;;;;;;;;;;;7.87;100.00;96985.46;108560;1282;22519;-86
2023/04/18 05:41:53;;;;;;;;;;;;;;;7.89;100.00;96991.99;108556;1282;22504;-85
2023/04/18 05:44:22;;;;;;;;;;;;;;;7.92;100.00;96996.20;108445;1282;94150;-85
2023/04/18 05:46:50;;;;;;;;;;;;;;;7.93;100.00;96994.72;108524;1282;22597;-85
2023/04/18 05:49:18;;;;;;;;;;;;;;;7.92;100.00;96999.47;108521;1282;22529;-85
2023/04/18 05:51:48;;;;;;;;;;;;;;;7.96;100.00;97003.30;108585;1282;24239;-85
2023/04/18 05:54:15;;;;;;;;;;;;;;;8.00;100.00;96998.83;108504;1282;36423;-86
2023/04/18 05:56:43;;;;;;;;;;;;;;;8.03;100.00;97002.77;108555;1282;23853;-85
2023/04/18 05:59:13;;;;;;;;;;;;;;;8.09;100.00;97001.91;108539;1278;22537;-85
2023/04/18 06:01:40;;;;;;;;;;;;;;;8.12;100.00;97003.15;108546;1281;22554;-85
2023/04/18 06:04:07;;;;;;;;;;;;;;;8.10;100.00;97007.46;108496;1282;40734;-86
2023/04/18 06:06:35;;;;;;;;;;;;;;;8.08;100.00;97013.33;108521;1276;22659;-85
2023/04/18 06:09:02;;;;;;;;;;;;;;;8.08;100.00;97012.22;108549;1282;23006;-85
2023/04/18 06:11:32;;;;;;;;;;;;;;;8.14;100.00;97005.06;108572;1282;22571;-86
2023/04/18 06:14:08;;;;;;;;;;;;;;;8.25;100.00;97008.44;108430;1281;54109;-86
2023/04/18 06:16:36;;;;;;;;;;;;;;;8.40;100.00;97003.70;108511;1282;22864;-86
2023/04/18 06:19:04;;;;;;;;;;;;;;;8.49;100.00;97012.91;108537;1282;22911;-85
2023/04/18 06:21:32;;;;;;;;;;;;;;;8.55;100.00;97012.72;108524;1282;22519;-86
2023/04/18 06:24:00;;;;;;;;;;;;;;;8.59;100.00;97016.56;108496;1275;65640;-86
2023/04/18 06:26:30;;;;;;;;;;;;;;;8.69;100.00;97020.06;108536;1279;24234;-86
2023/04/18 06:28:58;;;;;;;;;;;;;;;8.80;100.00;97020.77;108630;1282;23641;-86
2023/04/18 06:31:25;;;;;;;;;;;;;;;8.87;100.00;97021.70;108565;1282;22544;-86
2023/04/18 06:33:52;;;;;;;;;;;;;;;8.95;100.00;97023.42;108498;1282;37569;-86
2023/04/18 06:36:20;;;;;;;;;;;;;;;9.02;100.00;97026.27;108496;1282;22511;-86
2023/04/18 06:38:47;;;;;;;;;;;;;;;9.10;100.00;97028.27;108552;1279;23463;-86
2023/04/18 06:41:15;;;;;;;;;;;;;;;9.35;100.00;97026.30;108541;1281;23241;-86
2023/04/18 06:43:42;;;;;;;;;;;;;;;9.64;100.00;97030.02;108455;1282;68519;-86
2023/04/18 06:46:09;;;;;;;;;;;;;;;10.09;100.00;97031.95;108524;1282;23963;-86
2023/04/18 06:48:37;;;;;;;;;;;;;;;10.59;100.00;97029.09;108524;1282;25227;-87
2023/04/18 06:51:04;;;;;;;;;;;;;;;10.86;100.00;97028.30;108549;1278;22476;-86
2023/04/18 06:53:32;;;;;;;;;;;;;;;11.10;100.00;97022.81;108528;1282;56636;-87
2023/04/18 06:55:59;;;;;;;;;;;;;;;11.36;100.00;97024.35;108576;1282;22526;-86
2023/04/18 06:58:26;;;;;;;;;;;;;;;11.81;100.00;97027.30;108589;1281;22504;-87
2023/04/18 07:00:54;;;;;;;;;;;;;;;12.82;100.00;97025.84;108568;1276;23565;-87
2023/04/18 07:03:21;;;;;;;;;;;;;;;13.10;100.00;97024.23;108530;1282;23777;-87
2023/04/18 07:05:49;;;;;;;;;;;;;;;13.36;100.00;97023.79;108468;1282;74318;-88
2023/04/18 07:08:17;;;;;;;;;;;;;;;14.05;100.00;97025.17;108513;1282;22464;-88
2023/04/18 07:10:44;;;;;;;;;;;;;;;14.65;99.27;97029.83;108568;1279;22552;-87
2023/04/18 07:13:14;;;;;;;;;;;;;;;14.84;96.81;97027.77;108551;1282;25142;-88
2023/04/18 07:15:41;;;;;;;;;;;;;;;14.97;93.11;97028.89;108533;1282;31084;-87
2023/04/18 07:18:09;;;;;;;;;;;;;;;14.45;91.81;97033.99;108520;1282;24282;-87
2023/04/18 07:20:36;;;;;;;;;;;;;;;14.31;91.49;97036.52;108534;1276;22511;-87
2023/04/18 07:23:05;;;;;;;;;;;;;;;14.25;91.08;97037.14;108672;1282;22509;-88
2023/04/18 07:25:32;;;;;;;;;;;;;;;13.92;89.81;97039.94;108532;1282;44781;-87
2023/04/18 07:28:00;;;;;;;;;;;;;;;13.46;88.49;97038.63;108565;1282;22512;-89
2023/04/18 07:30:27;;;;;;;;;;;;;;;12.87;88.99;97036.94;108572;1273;22550;-87
2023/04/18 07:32:55;;;;;;;;;;;;;;;12.41;89.18;97039.42;108544;1282;22563;-86
2023/04/18 07:35:22;;;;;;;;;;;;;;;12.32;91.30;97039.81;108522;1282;46993;-87
2023/04/18 07:37:49;;;;;;;;;;;;;;;12.79;91.35;97037.44;108573;1282;24202;-87
2023/04/18 07:40:17;;;;;;;;;;;;;;;13.13;90.95;97039.90;108561;1282;22509;-86
2023/04/18 07:42:44;;;;;;;;;;;;;;;13.33;88.64;97046.77;108562;1276;22529;-87
2023/04/18 07:45:12;;;;;;;;;;;;;;;13.61;88.98;97044.13;108554;1281;40103;-87
2023/04/18 07:47:39;;;;;;;;;;;;;;;14.54;90.14;97047.83;108548;1282;22856;-86
2023/04/18 07:50:09;;;;;;;;;;;;;;;15.05;85.91;97052.30;108541;1279;25277;-86
2023/04/18 07:52:36;;;;;;;;;;;;;;;14.98;84.67;97051.67;108561;1276;22909;-86
2023/04/18 07:55:04;;;;;;;;;;;;;;;14.90;82.86;97053.84;108544;1274;52143;-87
2023/04/18 07:57:31;;;;;;;;;;;;;;;15.48;83.13;97055.34;108596;1282;23760;-86
2023/04/18 07:59:59;;;;;;;;;;;;;;;16.10;81.74;97055.85;108550;1282;22522;-86
2023/04/18 08:02:26;;;;;;;;;;;;;;;16.31;78.90;97060.20;108536;1281;22586;-86
2023/04/18 08:04:54;;;;;;;;;;;;;;;16.05;77.07;97060.47;108471;1282;46778;-86
2023/04/18 08:07:22;;;;;;;;;;;;;;;15.41;76.65;97070.67;108517;1282;22530;-86
2023/04/18 08:09:49;;;;;;;;;;;;;;;15.00;77.57;97071.17;108519;1282;22538;-86
2023/04/18 08:12:17;;;;;;;;;;;;;;;14.93;77.52;97067.30;108561;1279;23788;-87
2023/04/18 08:14:53;;;;;;;;;;;;;;;14.54;77.24;97068.13;108507;1282;67006;-85
2023/04/18 08:17:22;;;;;;;;;;;;;;;14.26;77.32;97068.86;108578;1281;23238;-86
2023/04/18 08:19:50;;;;;;;;;;;;;;;14.62;78.84;97070.42;108522;1282;22572;-87
2023/04/18 08:22:17;;;;;;;;;;;;;;;15.37;78.49;97066.79;108530;1277;22547;-86
2023/04/18 08:24:45;;;;;;;;;;;;;;;15.97;77.40;97063.39;108565;1281;61419;-85
2023/04/18 08:27:12;;;;;;;;;;;;;;;16.25;75.10;97064.71;108572;1282;22546;-86
2023/04/18 08:29:40;;;;;;;;;;;;;;;16.55;74.38;97068.23;108503;1282;22570;-86
2023/04/18 08:32:07;;;;;;;;;;;;;;;17.98;75.02;97069.93;108566;1282;22635;-87
2023/04/18 08:34:35;;;;;;;;;;;;;;;18.95;70.48;97074.59;108487;1279;60904;-85
2023/04/18 08:37:03;;;;;;;;;;;;;;;17.86;66.51;97074.79;108532;1277;22624;-85
2023/04/18 08:39:30;;;;;;;;;;;;;;;16.72;65.14;97083.13;108545;1282;22510;-86
2023/04/18 08:41:58;;;;;;;;;;;;;;;16.04;65.51;97084.92;108547;1282;24744;-85
2023/04/18 08:44:26;;;;;;;;;;;;;;;15.04;65.67;97090.59;108494;1282;65191;-87
2023/04/18 08:46:53;;;;;;;;;;;;;;;14.76;68.16;97085.69;108536;1282;22541;-86
2023/04/18 08:49:21;;;;;;;;;;;;;;;15.52;68.98;97081.86;108553;1282;22734;-85
2023/04/18 08:51:50;;;;;;;;;;;;;;;16.81;68.73;97074.08;108556;1282;24260;-86
2023/04/18 08:54:18;;;;;;;;;;;;;;;17.84;66.68;97078.52;108563;1282;41333;-86
2023/04/18 08:56:46;;;;;;;;;;;;;;;18.04;63.50;97079.67;108536;1282;22547;-86
2023/04/18 08:59:17;;;;;;;;;;;;;;;18.66;63.25;97080.89;108552;1276;22506;-86
2023/04/18 09:01:51;;;;;;;;;;;;;;;18.74;57.28;97081.17;108573;1277;23239;-85
2023/04/18 09:04:35;;;;;;;;;;;;;;;18.23;59.39;97075.64;108496;1280;51564;-85
2023/04/18 09:07:04;;;;;;;;;;;;;;;17.33;58.25;97076.48;108557;1282;24253;-85
2023/04/18 09:09:41;;;;;;;;;;;;;;;16.01;54.82;97082.11;108532;1279;22536;-87
2023/04/18 09:12:10;;;;;;;;;;;;;;;14.97;58.78;97080.52;108536;1282;22528;-85
2023/04/18 09:14:41;;;;;;;;;;;;;;;15.36;59.36;97080.91;108504;1280;44582;-85
2023/04/18 09:17:10;;;;;;;;;;;;;;;15.95;58.54;97068.44;108539;1282;22504;-86
2023/04/18 09:19:44;;;;;;;;;;;;;;;16.31;58.69;97071.27;108507;1282;22526;-85
2023/04/18 09:22:12;;;;;;;;;;;;;;;15.83;54.24;97070.20;108565;1282;22519;-86
2023/04/18 09:24:46;;;;;;;;;;;;;;;15.40;57.84;97069.34;108506;1281;59336;-85
2023/04/18 09:27:15;;;;;;;;;;;;;;;14.93;56.43;97068.63;108545;1282;24226;-86
2023/04/18 09:29:45;;;;;;;;;;;;;;;14.38;58.29;97080.95;108534;1282;22534;-85
2023/04/18 09:32:22;;;;;;;;;;;;;;;14.21;59.87;97077.73;108527;1276;23736;-84
2023/04/18 09:34:53;;;;;;;;;;;;;;;14.26;61.30;97072.39;108488;1282;65064;-85
2023/04/18 09:37:21;;;;;;;;;;;;;;;14.47;62.31;97072.70;108624;1281;22505;-85
2023/04/18 09:39:49;;;;;;;;;;;;;;;14.71;62.21;97068.27;108553;1282;25275;-85
2023/04/18 09:42:17;;;;;;;;;;;;;;;14.70;60.29;97076.80;108531;1266;23183;-84
2023/04/18 09:45:02;;;;;;;;;;;;;;;14.27;57.58;97078.39;108466;1279;55087;-84
2023/04/18 09:47:31;;;;;;;;;;;;;;;13.76;57.55;97066.95;108562;1281;23702;-84
2023/04/18 09:49:58;;;;;;;;;;;;;;;13.59;60.04;97066.80;108556;1279;22611;-86
2023/04/18 09:52:25;;;;;;;;;;;;;;;13.68;60.93;97063.45;108545;1282;22626;-84
2023/04/18 09:54:57;;;;;;;;;;;;;;;13.81;61.60;97064.17;108490;1274;45737;-85
2023/04/18 09:57:27;;;;;;;;;;;;;;;14.20;62.65;97066.82;108604;1281;23005;-85
2023/04/18 10:00:12;;;;;;;;;;;;;;;14.68;63.31;97065.85;108534;1277;23241;-84
2023/04/18 10:02:43;;;;;;;;;;;;;;;15.04;62.84;97057.60;108571;1282;22589;-85
2023/04/18 10:05:13;;;;;;;;;;;;;;;14.95;60.33;97059.30;108509;1273;40571;-84
2023/04/18 10:07:41;;;;;;;;;;;;;;;14.43;58.52;97067.48;108542;1282;22509;-84
2023/04/18 10:10:09;;;;;;;;;;;;;;;14.18;58.85;97061.88;108535;1281;22614;-84
2023/04/18 10:12:39;;;;;;;;;;;;;;;14.10;58.23;97061.38;108531;1282;23517;-84
2023/04/18 10:15:09;;;;;;;;;;;;;;;13.83;56.18;97059.19;108470;1282;57275;-84
2023/04/18 10:17:45;;;;;;;;;;;;;;;13.51;57.45;97052.52;108533;1282;22504;-84
2023/04/18 10:20:19;;;;;;;;;;;;;;;13.66;58.23;97054.36;108527;1276;22518;-84
2023/04/18 10:22:47;;;;;;;;;;;;;;;13.92;60.24;97050.01;108596;1282;22539;-84
2023/04/18 10:25:35;;;;;;;;;;;;;;;14.18;60.18;97054.90;108464;1282;74708;-85
2023/04/18 10:28:04;;;;;;;;;;;;;;;14.33;59.37;97055.35;108544;1282;23915;-85
2023/04/18 10:30:50;;;;;;;;;;;;;;;14.29;58.98;97058.48;108513;1282;22512;-85
2023/04/18 10:33:21;;;;;;;;;;;;;;;14.22;58.95;97061.88;108527;1282;22512;-85
2023/04/18 10:35:56;;;;;;;;;;;;;;;14.15;57.34;97057.98;108462;1280;82268;-84
2023/04/18 10:38:24;;;;;;;;;;;;;;;13.99;57.23;97055.77;108537;1282;23995;-84
2023/04/18 10:40:51;;;;;;;;;;;;;;;14.03;57.76;97056.86;108541;1278;22722;-84
2023/04/18 10:43:18;;;;;;;;;;;;;;;14.00;56.48;97054.21;108532;1275;22516;-84
2023/04/18 10:46:05;;;;;;;;;;;;;;;13.98;56.86;97053.11;108428;1282;62803;-84
2023/04/18 10:48:34;;;;;;;;;;;;;;;13.99;56.36;97050.91;108549;1282;22515;-84
2023/04/18 10:51:15;;;;;;;;;;;;;;;14.06;56.29;97052.09;108549;1277;25396;-85
2023/04/18 10:53:47;;;;;;;;;;;;;;;13.96;54.32;97045.42;108570;1274;53930;-84
2023/04/18 10:56:16;;;;;;;;;;;;;;;13.81;51.96;97052.12;108514;1282;22474;-83
2023/04/18 10:58:48;;;;;;;;;;;;;;;13.50;52.01;97050.55;108563;1282;22515;-84
2023/04/18 11:01:21;;;;;;;;;;;;;;;13.52;53.96;97047.44;108569;1282;22845;-84
2023/04/18 11:03:50;;;;;;;;;;;;;;;13.72;54.34;97048.41;108476;1282;43739;-84
2023/04/18 11:06:17;;;;;;;;;;;;;;;13.76;52.74;97048.63;108544;1282;23667;-83
2023/04/18 11:08:45;;;;;;;;;;;;;;;13.55;51.35;97042.77;108529;1275;22519;-84
2023/04/18 11:11:13;;;;;;;;;;;;;;;13.50;52.42;97044.06;108514;1282;22541;-83
2023/04/18 11:13:53;;;;;;;;;;;;;;;13.56;52.17;97043.09;108531;1278;36267;-83
2023/04/18 11:16:28;;;;;;;;;;;;;;;13.56;52.26;97040.10;108520;1283;22685;-83
2023/04/18 11:18:55;;;;;;;;;;;;;;;13.54;52.26;97040.98;108533;1282;24250;-83
2023/04/18 11:21:26;;;;;;;;;;;;;;;13.69;52.47;97040.52;108543;1275;22516;-83
2023/04/18 11:23:55;;;;;;;;;;;;;;;13.71;52.63;97039.53;108488;1282;91366;-83
2023/04/18 11:26:25;;;;;;;;;;;;;;;13.86;51.42;97042.31;108541;1281;22507;-83
2023/04/18 11:28:55;;;;;;;;;;;;;;;13.85;50.23;97041.05;108577;1282;22541;-83
2023/04/18 11:31:23;;;;;;;;;;;;;;;13.75;49.83;97037.13;108603;1278;25108;-84
2023/04/18 11:33:51;;;;;;;;;;;;;;;13.56;48.46;97036.16;108515;1280;71201;-84
2023/04/18 11:36:19;;;;;;;;;;;;;;;13.51;50.43;97032.87;108539;1282;25318;-84
2023/04/18 11:38:47;;;;;;;;;;;;;;;13.60;50.66;97032.00;108545;1279;22535;-83
2023/04/18 11:41:14;;;;;;;;;;;;;;;13.54;49.26;97035.23;108545;1282;22542;-83
2023/04/18 11:43:43;;;;;;;;;;;;;;;13.39;48.79;97040.30;108519;1282;52575;-83
2023/04/18 11:46:11;;;;;;;;;;;;;;;13.30;49.69;97035.57;108512;1282;22692;-83
2023/04/18 11:48:39;;;;;;;;;;;;;;;13.40;50.76;97036.05;108563;1281;22573;-84
2023/04/18 11:51:07;;;;;;;;;;;;;;;13.52;50.67;97033.59;108568;1281;22593;-83
2023/04/18 11:53:36;;;;;;;;;;;;;;;13.64;51.20;97027.63;108536;1282;32542;-83
2023/04/18 11:56:07;;;;;;;;;;;;;;;13.79;52.49;97026.40;108556;1282;22556;-83
2023/04/18 11:58:35;;;;;;;;;;;;;;;13.95;52.69;97025.45;108549;1282;22601;-83
2023/04/18 12:01:15;;;;;;;;;;;;;;;13.94;52.02;97026.63;108494;1282;22566;-83
2023/04/18 12:03:44;;;;;;;;;;;;;;;13.86;51.60;97029.72;108505;1275;57264;-83
2023/04/18 12:06:11;;;;;;;;;;;;;;;13.75;51.61;97025.34;108598;1281;24359;-85
2023/04/18 12:08:42;;;;;;;;;;;;;;;13.76;52.76;97023.52;108594;1268;22613;-83
2023/04/18 12:11:09;;;;;;;;;;;;;;;13.91;53.54;97025.88;108518;1282;22586;-83
2023/04/18 12:13:37;;;;;;;;;;;;;;;14.01;52.88;97028.65;108492;1275;66756;-84
2023/04/18 12:16:06;;;;;;;;;;;;;;;13.99;52.26;97024.48;108525;1282;25284;-83
2023/04/18 12:18:34;;;;;;;;;;;;;;;13.84;50.53;97029.05;108581;1279;22553;-84
2023/04/18 12:21:04;;;;;;;;;;;;;;;13.61;49.35;97024.00;108570;1274;22620;-83
2023/04/18 12:23:33;;;;;;;;;;;;;;;13.60;51.52;97025.67;108492;1282;67501;-83
2023/04/18 12:26:01;;;;;;;;;;;;;;;13.76;51.10;97025.00;108552;1279;22663;-84
2023/04/18 12:28:29;;;;;;;;;;;;;;;13.85;51.64;97017.64;108499;1282;24888;-85
2023/04/18 12:30:56;;;;;;;;;;;;;;;14.00;51.75;97021.48;108535;1282;22583;-83
2023/04/18 12:33:25;;;;;;;;;;;;;;;14.08;51.46;97022.80;108532;1273;23275;-83
2023/04/18 12:35:53;;;;;;;;;;;;;;;14.11;51.44;97024.08;108612;1273;25405;-84
2023/04/18 12:38:21;;;;;;;;;;;;;;;14.09;50.79;97020.17;108611;1282;23840;-84
2023/04/18 12:40:49;;;;;;;;;;;;;;;14.02;50.07;97025.77;108541;1282;25287;-83
2023/04/18 12:43:18;;;;;;;;;;;;;;;13.96;51.67;97015.02;108525;1282;22549;-83